»·PEaware :: SWA1565 KSJC-KBUR

SWA1565 :: KSJC-KBUR

FLIGHT INFORMATION

Flight Status: Arrived
Operator:
Southwest Airlines
More flights by this operator :: More flights under this callsign
Pilot: Tim M. (868)
Aircraft: BOEING 737-800
(B738)
More flights by this aircraft type
Origin: KSJC Mineta San Jose Intl
United States
Destination: KBUR Bob Hope-Burbank
United States
More flights between these airports :: More routes between these airports
Route: +TECKY3 EBAYE BURGL HONZK ROKKR2
File this flight plan on PilotEdge
Remarks:
Altitude:
(Current/Filed)
35,000ft
Speed:
(Current/Filed)
466kts
Departed: 05-Nov-20 07:10 PM
Arrived: 05-Nov-20 09:01 PM
Distance/Time
Traveled:
258nm/1:50
Distance/Time
To Go:
Arrived

Flight Plot

Page will automatically refresh every two minutes.

Flight plan parsing failed; only flown route is shown


Map Options




Map Legend


Flown Route
Filed Route
Departure Airport
Arrival Airport
Navaid (VOR, NDB)
Fix

Horizontal Profiles

Position Reports

Time Latitude Longitude Heading Altitude Ground
Speed
05-Nov-20 18:41 37.364901 -121.925375 46 64ft 0kts
05-Nov-20 18:42 37.364901 -121.925375 46 64ft 0kts
05-Nov-20 18:43 37.364901 -121.925375 46 64ft 0kts
05-Nov-20 18:44 37.364901 -121.925375 46 64ft 0kts
05-Nov-20 18:45 37.364901 -121.925375 46 64ft 0kts
05-Nov-20 18:46 37.364901 -121.925375 46 64ft 0kts
05-Nov-20 18:47 37.364901 -121.925375 46 64ft 0kts
05-Nov-20 18:48 37.364901 -121.925375 46 64ft 0kts
05-Nov-20 18:49 37.364901 -121.925375 46 64ft 0kts
05-Nov-20 18:50 37.364901 -121.925375 46 64ft 0kts
05-Nov-20 18:51 37.364901 -121.925375 46 64ft 0kts
05-Nov-20 18:52 37.364901 -121.925375 46 64ft 0kts
05-Nov-20 18:53 37.364901 -121.925375 46 64ft 0kts
05-Nov-20 18:54 37.364901 -121.925375 46 64ft 0kts
05-Nov-20 18:55 37.364901 -121.925375 46 64ft 0kts
05-Nov-20 18:56 37.364901 -121.925375 46 64ft 0kts
05-Nov-20 18:57 37.364901 -121.925375 46 64ft 0kts
05-Nov-20 18:58 37.364901 -121.925375 46 64ft 0kts
05-Nov-20 18:59 37.364901 -121.925375 46 64ft 0kts
05-Nov-20 19:00 37.364574 -121.925875 50 64ft 2kts
05-Nov-20 19:01 37.364750 -121.926371 138 64ft 0kts
05-Nov-20 19:02 37.364750 -121.926371 138 64ft 0kts
05-Nov-20 19:03 37.364750 -121.926371 138 64ft 0kts
05-Nov-20 19:04 37.364317 -121.925937 137 64ft 13kts
05-Nov-20 19:05 37.361626 -121.922961 138 64ft 14kts
05-Nov-20 19:06 37.358887 -121.919953 139 64ft 12kts
05-Nov-20 19:07 37.356024 -121.916791 140 64ft 14kts
05-Nov-20 19:08 37.352558 -121.915523 278 64ft 16kts
05-Nov-20 19:09 37.368900 -121.933389 319 279ft 165kts
05-Nov-20 19:10 37.407490 -121.974127 333 2606ft 221kts
05-Nov-20 19:11 37.460316 -121.932771 84 4773ft 287kts
05-Nov-20 19:12 37.406092 -121.877170 156 8130ft 287kts
05-Nov-20 19:13 37.344946 -121.807833 137 11172ft 308kts
05-Nov-20 19:14 37.290768 -121.744286 139 12181ft 367kts
05-Nov-20 19:44 37.364901 -121.925375 46 63ft 0kts
05-Nov-20 19:45 37.364901 -121.925375 46 63ft 0kts
05-Nov-20 19:46 37.364901 -121.925375 46 64ft 0kts
05-Nov-20 19:47 37.364901 -121.925375 46 64ft 0kts
05-Nov-20 19:48 37.364901 -121.925375 46 64ft 0kts
05-Nov-20 19:49 37.364901 -121.925375 46 64ft 0kts
05-Nov-20 19:50 37.364901 -121.925375 46 64ft 0kts
05-Nov-20 19:51 37.364901 -121.925375 46 64ft 0kts
05-Nov-20 19:52 37.364901 -121.925375 46 64ft 0kts
05-Nov-20 19:53 37.364901 -121.925375 46 64ft 0kts
05-Nov-20 19:54 37.364901 -121.925375 46 64ft 0kts
05-Nov-20 19:55 37.364901 -121.925375 46 64ft 0kts
05-Nov-20 19:56 37.364901 -121.925375 46 64ft 0kts
05-Nov-20 19:57 37.364901 -121.925375 46 64ft 0kts
05-Nov-20 19:58 37.364901 -121.925375 46 64ft 0kts
05-Nov-20 19:59 37.364901 -121.925375 46 64ft 0kts
05-Nov-20 20:00 37.364901 -121.925375 46 64ft 0kts
05-Nov-20 20:01 37.364547 -121.925919 60 64ft 2kts
05-Nov-20 20:02 37.364751 -121.926372 138 64ft 0kts
05-Nov-20 20:03 37.364750 -121.926371 138 64ft 0kts
05-Nov-20 20:04 37.364750 -121.926371 138 64ft 0kts
05-Nov-20 20:05 37.362426 -121.923835 139 64ft 12kts
05-Nov-20 20:06 37.359315 -121.920428 138 64ft 15kts
05-Nov-20 20:07 37.355873 -121.916644 138 64ft 15kts
05-Nov-20 20:08 37.352942 -121.914591 230 64ft 12kts
05-Nov-20 20:09 37.361454 -121.925354 318 64ft 139kts
05-Nov-20 20:10 37.396435 -121.963682 319 2471ft 180kts
05-Nov-20 20:11 37.449125 -121.948890 65 4265ft 274kts
05-Nov-20 20:12 37.411791 -121.880557 163 5010ft 275kts
05-Nov-20 20:13 37.352516 -121.818555 135 6768ft 283kts
05-Nov-20 20:14 37.294491 -121.748176 139 9999ft 296kts
05-Nov-20 20:15 37.235239 -121.681552 139 11849ft 346kts
05-Nov-20 20:16 37.157949 -121.594435 139 13905ft 385kts
05-Nov-20 20:17 37.076682 -121.502944 139 16655ft 399kts
05-Nov-20 20:18 36.991313 -121.410947 141 19104ft 412kts
05-Nov-20 20:19 36.902523 -121.316846 141 21274ft 424kts
05-Nov-20 20:20 36.811712 -121.219884 141 23145ft 436kts
05-Nov-20 20:21 36.729187 -121.132541 141 24609ft 445kts
05-Nov-20 20:22 36.633521 -121.031797 141 26109ft 455kts
05-Nov-20 20:23 36.534742 -120.930412 142 27454ft 464kts
05-Nov-20 20:24 36.433642 -120.828232 143 28699ft 470kts
05-Nov-20 20:25 36.332943 -120.726493 142 30484ft 463kts
05-Nov-20 20:26 36.234477 -120.626753 143 32372ft 452kts
05-Nov-20 20:27 36.149029 -120.540821 143 33950ft 444kts
05-Nov-20 20:28 36.063733 -120.454974 143 34968ft 444kts
05-Nov-20 20:29 35.970465 -120.361935 143 35003ft 438kts
05-Nov-20 20:30 35.875121 -120.267356 145 35002ft 438kts
05-Nov-20 20:31 35.772503 -120.188021 150 35003ft 435kts
05-Nov-20 20:32 35.668609 -120.111709 155 34997ft 435kts
05-Nov-20 20:33 35.555798 -120.057807 161 34983ft 434kts
05-Nov-20 20:34 35.442600 -120.006595 161 34298ft 434kts
05-Nov-20 20:35 35.328840 -119.954822 161 31053ft 438kts
05-Nov-20 20:36 35.214600 -119.903318 161 28243ft 431kts
05-Nov-20 20:37 35.130444 -119.864447 156 26376ft 422kts
05-Nov-20 20:38 35.035999 -119.783547 140 23958ft 411kts
05-Nov-20 20:39 34.949771 -119.694907 140 21608ft 398kts
05-Nov-20 20:40 34.869147 -119.609449 133 20415ft 362kts
05-Nov-20 20:41 34.805596 -119.515189 130 18498ft 358kts
05-Nov-20 20:42 34.750216 -119.431815 129 16919ft 351kts
05-Nov-20 20:43 34.690079 -119.339985 130 15200ft 344kts
05-Nov-20 20:44 34.639625 -119.261817 125 14188ft 326kts
05-Nov-20 20:45 34.613266 -119.208078 121 13299ft 325kts
05-Nov-20 20:46 34.569093 -119.118459 122 11959ft 317kts
05-Nov-20 20:47 34.515633 -119.042304 143 11220ft 289kts
05-Nov-20 20:48 34.451785 -118.984505 143 10105ft 278kts
05-Nov-20 20:49 34.391516 -118.925677 140 9195ft 279kts
05-Nov-20 20:50 34.372484 -118.848959 92 7922ft 283kts
05-Nov-20 20:51 34.370273 -118.754114 92 6435ft 285kts
05-Nov-20 20:52 34.367656 -118.658207 92 5141ft 277kts
05-Nov-20 20:53 34.365222 -118.575421 91 5020ft 234kts
05-Nov-20 20:54 34.370646 -118.499982 94 4459ft 212kts
05-Nov-20 20:55 34.343535 -118.440761 129 4185ft 199kts
05-Nov-20 20:56 34.307067 -118.401140 154 3248ft 169kts
05-Nov-20 20:57 34.272359 -118.383729 153 2565ft 156kts
05-Nov-20 20:58 34.231218 -118.365637 168 1453ft 161kts
05-Nov-20 20:59 34.198055 -118.356441 167 729ft 88kts
05-Nov-20 21:00 34.194347 -118.356356 296 729ft 9kts
05-Nov-20 21:01 34.194696 -118.356602 357 729ft 0kts
05-Nov-20 21:02 34.194698 -118.356602 357 729ft 0kts
05-Nov-20 21:03 34.195151 -118.356319 66 729ft 11kts
05-Nov-20 21:04 34.197198 -118.355020 89 729ft 9kts
05-Nov-20 21:05 34.197157 -118.352028 91 729ft 8kts
05-Nov-20 21:06 34.196747 -118.350146 179 729ft 0kts
05-Nov-20 21:07 34.196747 -118.350146 179 729ft 0kts

Navigation Log

Ident Type
Flight plan parsing failed, navigation log unavailable